sensor_id;sensor_type;location;lat;lon;timestamp;pressure;altitude;pressure_sealevel;temperature;humidity
78142;BME280;67393;52.620;13.482;2023-02-13T19:37:31;103280.44;;;5.11;100.00
78142;BME280;67393;52.620;13.482;2023-02-13T19:40:10;103275.28;;;5.14;100.00
78142;BME280;67393;52.620;13.482;2023-02-13T19:42:36;103279.03;;;5.21;100.00
78142;BME280;67393;52.620;13.482;2023-02-13T19:45:05;103288.88;;;5.26;100.00
78142;BME280;67393;52.620;13.482;2023-02-13T19:47:32;103288.72;;;5.22;100.00
78142;BME280;67393;52.620;13.482;2023-02-13T19:49:59;103293.09;;;5.21;100.00
78142;BME280;67393;52.620;13.482;2023-02-13T19:52:25;103290.41;;;5.20;100.00
78142;BME280;67393;52.620;13.482;2023-02-13T19:54:51;103286.09;;;5.22;100.00
78142;BME280;67393;52.620;13.482;2023-02-13T19:57:18;103296.97;;;5.31;100.00
78142;BME280;67393;52.620;13.482;2023-02-13T19:59:44;103290.47;;;5.21;100.00
78142;BME280;67393;52.620;13.482;2023-02-13T20:02:12;103282.69;;;5.24;100.00
78142;BME280;67393;52.620;13.482;2023-02-13T20:04:39;103285.34;;;5.26;100.00
78142;BME280;67393;52.620;13.482;2023-02-13T20:07:05;103294.09;;;5.25;100.00
78142;BME280;67393;52.620;13.482;2023-02-13T20:09:32;103299.13;;;5.19;100.00
78142;BME280;67393;52.620;13.482;2023-02-13T20:11:59;103297.44;;;5.19;100.00
78142;BME280;67393;52.620;13.482;2023-02-13T20:14:25;103294.88;;;5.22;100.00
78142;BME280;67393;52.620;13.482;2023-02-13T20:16:52;103293.94;;;5.20;100.00
78142;BME280;67393;52.620;13.482;2023-02-13T20:19:18;103298.19;;;5.17;100.00
78142;BME280;67393;52.620;13.482;2023-02-13T20:21:44;103301.69;;;5.16;100.00
78142;BME280;67393;52.620;13.482;2023-02-13T20:24:11;103293.81;;;5.17;100.00
78142;BME280;67393;52.620;13.482;2023-02-13T20:26:38;103300.88;;;5.18;100.00
78142;BME280;67393;52.620;13.482;2023-02-13T20:29:04;103303.50;;;5.18;100.00
78142;BME280;67393;52.620;13.482;2023-02-13T20:31:31;103308.50;;;5.10;100.00
78142;BME280;67393;52.620;13.482;2023-02-13T20:33:58;103308.69;;;5.15;100.00
78142;BME280;67393;52.620;13.482;2023-02-13T20:36:28;103305.13;;;5.14;100.00
78142;BME280;67393;52.620;13.482;2023-02-13T20:38:57;103306.81;;;5.12;100.00
78142;BME280;67393;52.620;13.482;2023-02-13T20:41:25;103315.47;;;5.08;100.00
78142;BME280;67393;52.620;13.482;2023-02-13T20:43:56;103318.97;;;5.09;100.00
78142;BME280;67393;52.620;13.482;2023-02-13T20:46:23;103322.66;;;5.14;100.00
78142;BME280;67393;52.620;13.482;2023-02-13T20:48:50;103322.38;;;5.06;100.00
78142;BME280;67393;52.620;13.482;2023-02-13T20:51:17;103329.47;;;5.07;100.00
78142;BME280;67393;52.620;13.482;2023-02-13T20:53:45;103331.91;;;5.03;100.00
78142;BME280;67393;52.620;13.482;2023-02-13T20:58:39;103338.41;;;5.12;100.00
78142;BME280;67393;52.620;13.482;2023-02-13T21:01:11;103337.56;;;5.13;100.00
78142;BME280;67393;52.620;13.482;2023-02-13T21:03:37;103341.78;;;5.08;100.00
78142;BME280;67393;52.620;13.482;2023-02-13T21:06:05;103345.78;;;4.99;100.00
78142;BME280;67393;52.620;13.482;2023-02-13T21:08:31;103346.59;;;4.96;100.00
78142;BME280;67393;52.620;13.482;2023-02-13T21:11:05;103344.00;;;4.98;100.00
78142;BME280;67393;52.620;13.482;2023-02-13T21:13:33;103346.69;;;4.99;100.00
78142;BME280;67393;52.620;13.482;2023-02-13T21:16:10;103350.53;;;5.07;100.00
78142;BME280;67393;52.620;13.482;2023-02-13T21:18:37;103352.97;;;5.03;100.00
